Time;durP1;ratioP1;P1;durP2;ratioP2;P2;SDS_P1;SDS_P2;PMS_P1;PMS_P2;Temp;Humidity;BMP_temperature;BMP_pressure;BME280_temperature;BME280_humidity;BME280_pressure;Samples;Min_cycle;Max_cycle;Signal;HPM_P1;HPM_P2
2021/01/20 11:13:24;;;;;;;4.43;1.25;;;10.70;99.90;;;;;;626376;23;20417;-82
2021/01/20 11:16:59;;;;;;;4.88;1.55;;;10.90;99.90;;;;;;5056587;27;1640053;-90
2021/01/20 11:19:25;;;;;;;2.63;1.20;;;11.00;99.90;;;;;;5066287;28;20056;-90
2021/01/20 11:21:52;;;;;;;3.63;1.05;;;10.70;99.90;;;;;;5055345;28;20120;-91
2021/01/20 11:24:26;;;;;;;2.25;1.20;;;10.40;99.90;;;;;;5068958;28;20028;-90
2021/01/20 11:26:52;;;;;;;2.90;1.30;;;9.10;99.90;;;;;;5073172;28;20067;-87
2021/01/20 11:29:18;;;;;;;2.95;1.40;;;11.00;99.90;;;;;;5056973;28;20037;-89
2021/01/20 11:31:45;;;;;;;4.78;1.42;;;11.60;99.90;;;;;;5056739;28;20043;-90
2021/01/20 11:34:11;;;;;;;2.75;1.05;;;10.10;99.90;;;;;;5089567;28;20129;-90
2021/01/20 11:36:37;;;;;;;3.58;1.50;;;11.60;99.90;;;;;;5056665;28;20074;-88
2021/01/20 11:39:03;;;;;;;2.33;1.17;;;11.50;99.90;;;;;;5056735;28;20044;-89
2021/01/20 11:41:29;;;;;;;2.42;1.10;;;10.10;99.90;;;;;;5056515;28;20044;-88
2021/01/20 11:43:55;;;;;;;3.42;1.58;;;10.20;99.90;;;;;;5055160;28;20033;-89
2021/01/20 11:46:20;;;;;;;3.72;1.20;;;10.20;99.90;;;;;;5036850;28;20075;-89
2021/01/20 11:48:47;;;;;;;2.70;1.10;;;10.20;99.90;;;;;;5035323;28;20072;-87
2021/01/20 11:51:14;;;;;;;2.30;1.10;;;10.20;99.90;;;;;;5035474;28;20086;-87
2021/01/20 11:53:40;;;;;;;2.70;1.13;;;10.30;99.90;;;;;;5052107;28;20045;-89
2021/01/20 11:56:06;;;;;;;2.95;1.20;;;11.70;99.90;;;;;;5053858;28;20066;-88
2021/01/20 11:58:32;;;;;;;3.05;1.20;;;10.40;99.90;;;;;;5053330;28;20045;-87
2021/01/20 12:00:57;;;;;;;2.75;1.17;;;10.50;99.90;;;;;;5053705;28;20047;-88
2021/01/20 12:03:24;;;;;;;2.47;1.10;;;10.50;99.90;;;;;;5053660;28;20509;-88
2021/01/20 12:05:50;;;;;;;2.15;1.13;;;10.50;99.90;;;;;;5053833;28;20033;-89
2021/01/20 12:08:17;;;;;;;2.65;1.20;;;10.50;99.90;;;;;;5086705;28;20045;-90
2021/01/20 12:10:43;;;;;;;4.45;1.50;;;10.60;99.90;;;;;;5053797;28;20044;-88
2021/01/20 12:13:08;;;;;;;2.90;1.33;;;10.60;99.90;;;;;;5053596;28;20054;-88
2021/01/20 12:15:34;;;;;;;3.38;1.50;;;10.60;99.90;;;;;;5038267;28;20052;-89
2021/01/20 12:18:00;;;;;;;2.70;1.27;;;10.60;99.90;;;;;;5033265;28;20418;-87
2021/01/20 12:20:26;;;;;;;1.77;1.00;;;10.70;99.90;;;;;;5031671;28;20056;-87
2021/01/20 12:22:52;;;;;;;3.92;1.30;;;10.70;99.90;;;;;;5033138;28;20727;-89
2021/01/20 12:25:18;;;;;;;3.13;1.33;;;12.50;99.90;;;;;;5032936;28;20196;-89
2021/01/20 12:27:44;;;;;;;3.58;1.63;;;10.60;99.90;;;;;;5022790;28;20567;-89
2021/01/20 12:30:11;;;;;;;2.25;1.30;;;10.60;99.90;;;;;;5025462;28;20037;-87
2021/01/20 12:32:37;;;;;;;3.35;1.45;;;10.60;99.90;;;;;;5039175;28;20041;-88
2021/01/20 12:35:04;;;;;;;3.90;1.42;;;10.60;99.90;;;;;;5040078;28;20072;-87
2021/01/20 12:37:30;;;;;;;3.28;1.20;;;10.70;99.90;;;;;;5039845;28;20061;-88
2021/01/20 12:39:56;;;;;;;12.38;1.75;;;;;;;;;;5071462;28;20485;-89
2021/01/20 12:42:26;;;;;;;2.10;1.25;;;;;;;;;;5037866;28;20494;-89
2021/01/20 13:15:39;;;;;;;3.03;1.42;;;10.70;99.90;;;;;;5124874;27;20774;-88
2021/01/20 13:18:05;;;;;;;3.17;1.58;;;11.30;99.90;;;;;;5090652;28;20048;-89
2021/01/20 13:20:30;;;;;;;4.57;1.23;;;11.40;99.90;;;;;;5091885;28;20067;-89
2021/01/20 13:22:56;;;;;;;3.75;1.60;;;12.80;99.90;;;;;;5090644;28;20051;-91
2021/01/20 13:25:23;;;;;;;3.45;1.40;;;11.50;99.80;;;;;;5091578;28;20047;-89
2021/01/20 13:27:49;;;;;;;5.60;1.60;;;11.40;99.90;;;;;;5091516;28;20113;-89
2021/01/20 13:30:15;;;;;;;4.75;1.10;;;11.30;99.90;;;;;;5091148;28;20499;-88
2021/01/20 13:32:42;;;;;;;3.42;1.42;;;11.30;99.90;;;;;;5092711;28;20056;-89
2021/01/20 13:35:08;;;;;;;4.05;1.40;;;11.10;99.90;;;;;;5091109;28;20049;-89
2021/01/20 13:37:34;;;;;;;3.78;1.55;;;11.10;99.90;;;;;;5092811;28;20111;-91
2021/01/20 13:40:00;;;;;;;8.52;1.63;;;11.10;99.80;;;;;;5092696;28;20075;-90
2021/01/20 13:42:25;;;;;;;3.47;1.60;;;11.10;98.90;;;;;;5093174;28;20036;-91
2021/01/20 13:44:51;;;;;;;7.45;1.63;;;11.00;98.70;;;;;;5093152;28;20041;-88
2021/01/20 13:47:17;;;;;;;3.72;1.50;;;10.90;98.60;;;;;;5092762;28;20036;-88
2021/01/20 13:49:45;;;;;;;3.03;1.42;;;11.00;99.20;;;;;;5092829;28;20036;-90
2021/01/20 13:52:10;;;;;;;3.10;1.45;;;12.80;99.10;;;;;;5092828;28;20048;-89
2021/01/20 13:54:38;;;;;;;2.83;1.45;;;11.00;98.80;;;;;;5091878;28;20044;-91
2021/01/20 13:57:06;;;;;;;3.42;1.55;;;11.00;99.20;;;;;;5090843;28;20044;-89
2021/01/20 13:59:31;;;;;;;3.10;1.55;;;10.90;99.40;;;;;;5090691;28;20040;-88
2021/01/20 14:01:57;;;;;;;3.55;1.50;;;11.00;99.00;;;;;;5089882;28;20451;-88
2021/01/20 14:04:23;;;;;;;4.90;1.60;;;10.90;99.50;;;;;;5089558;28;20040;-90
2021/01/20 14:06:49;;;;;;;3.40;1.40;;;10.90;99.50;;;;;;5089668;28;20098;-89
2021/01/20 14:09:15;;;;;;;2.33;1.00;;;11.50;99.40;;;;;;5089399;28;20078;-88
2021/01/20 14:11:41;;;;;;;3.03;1.60;;;10.80;99.30;;;;;;5091743;28;20040;-88
2021/01/20 14:14:06;;;;;;;4.72;1.20;;;10.80;98.90;;;;;;5090760;28;20381;-89
2021/01/20 14:16:33;;;;;;;5.22;1.70;;;11.10;99.50;;;;;;5077678;28;20110;-89
2021/01/20 14:18:58;;;;;;;3.70;1.38;;;10.70;98.60;;;;;;5078140;28;20123;-89
2021/01/20 14:21:24;;;;;;;4.30;1.42;;;10.70;99.40;;;;;;5079121;28;20526;-88
2021/01/20 14:23:51;;;;;;;3.85;1.67;;;10.80;99.00;;;;;;5076883;28;20037;-89
2021/01/20 14:26:18;;;;;;;3.03;1.40;;;10.70;99.00;;;;;;5077354;28;20078;-89
2021/01/20 14:28:44;;;;;;;2.67;1.45;;;10.70;99.40;;;;;;5076529;28;20128;-88
2021/01/20 14:31:09;;;;;;;4.82;1.45;;;10.60;98.50;;;;;;5077469;28;20119;-91
2021/01/20 14:33:35;;;;;;;4.93;1.63;;;10.50;99.50;;;;;;5076399;28;20476;-88
2021/01/20 14:36:01;;;;;;;4.07;1.70;;;10.50;98.80;;;;;;5075461;28;20041;-87
2021/01/20 14:38:27;;;;;;;3.50;1.65;;;10.70;99.30;;;;;;5058849;28;20159;-89
2021/01/20 14:40:55;;;;;;;3.00;1.40;;;10.40;99.50;;;;;;5057436;28;20496;-88
2021/01/20 14:43:21;;;;;;;3.78;1.42;;;11.50;99.30;;;;;;5058547;28;20045;-88
2021/01/20 14:45:47;;;;;;;4.78;1.77;;;10.30;99.50;;;;;;5058691;28;20481;-89
2021/01/20 14:48:13;;;;;;;4.93;2.00;;;10.40;99.40;;;;;;5058613;28;20376;-88
2021/01/20 14:50:39;;;;;;;3.90;1.45;;;10.40;99.10;;;;;;5056861;28;20037;-88
2021/01/20 14:53:07;;;;;;;3.30;1.50;;;10.30;99.80;;;;;;5055915;28;20036;-88
2021/01/20 14:55:32;;;;;;;4.22;1.60;;;10.30;99.60;;;;;;5055818;28;20040;-88
2021/01/20 14:57:59;;;;;;;4.18;1.35;;;10.20;99.00;;;;;;5055712;28;20036;-88
2021/01/20 15:00:25;;;;;;;3.63;1.60;;;11.10;99.70;;;;;;5062798;28;20045;-88
2021/01/20 15:02:51;;;;;;;3.35;1.63;;;10.10;99.90;;;;;;5075336;28;20053;-87
2021/01/20 15:05:16;;;;;;;3.78;1.77;;;10.10;99.40;;;;;;5074347;28;20066;-87
2021/01/20 15:07:42;;;;;;;4.18;1.50;;;10.20;99.60;;;;;;5074588;28;20045;-87
2021/01/20 15:10:09;;;;;;;3.80;1.55;;;10.10;99.80;;;;;;5074066;28;20044;-87
2021/01/20 15:12:35;;;;;;;4.97;1.85;;;10.10;99.90;;;;;;5076167;28;20140;-88
2021/01/20 15:15:04;;;;;;;6.35;1.58;;;10.10;99.80;;;;;;5074167;28;20072;-88
2021/01/20 15:17:29;;;;;;;2.97;1.50;;;10.00;99.70;;;;;;5074230;28;20561;-88
2021/01/20 15:19:55;;;;;;;3.17;1.42;;;10.10;99.60;;;;;;5071612;28;20056;-87
2021/01/20 15:22:20;;;;;;;5.35;1.80;;;11.30;99.90;;;;;;5071311;28;20040;-88
2021/01/20 15:24:46;;;;;;;4.47;1.60;;;10.00;99.80;;;;;;5071743;28;20052;-88
2021/01/20 15:27:12;;;;;;;4.95;1.50;;;10.00;99.90;;;;;;5070465;28;20113;-86
2021/01/20 15:29:38;;;;;;;2.83;1.33;;;10.00;99.90;;;;;;5071759;28;20127;-87
2021/01/20 15:32:05;;;;;;;4.00;1.90;;;10.00;99.60;;;;;;5072819;28;20076;-88
2021/01/20 15:34:30;;;;;;;6.25;1.50;;;10.00;99.70;;;;;;5071811;28;20052;-86
2021/01/20 15:36:56;;;;;;;2.72;1.30;;;10.00;99.60;;;;;;5071010;28;20044;-88
2021/01/20 15:39:22;;;;;;;4.35;1.60;;;10.00;99.90;;;;;;5071905;28;20040;-89
2021/01/20 15:41:47;;;;;;;3.53;1.75;;;10.00;99.80;;;;;;5073099;28;20073;-87
2021/01/20 15:44:13;;;;;;;4.55;1.70;;;10.00;99.60;;;;;;5071368;28;20110;-86
2021/01/20 15:46:39;;;;;;;3.40;1.50;;;9.90;99.90;;;;;;5073243;28;20040;-87
2021/01/20 15:49:06;;;;;;;4.00;1.60;;;9.90;99.40;;;;;;5069761;28;20475;-87
2021/01/20 15:51:32;;;;;;;4.70;1.40;;;10.00;99.50;;;;;;5071213;28;20075;-86
2021/01/20 15:53:58;;;;;;;4.38;1.23;;;10.00;99.10;;;;;;5071243;28;20123;-87
2021/01/20 15:56:23;;;;;;;5.05;1.58;;;11.40;99.20;;;;;;5070824;28;20036;-88
2021/01/20 15:58:50;;;;;;;3.70;1.52;;;10.00;99.00;;;;;;5070907;28;20412;-86
2021/01/20 16:01:16;;;;;;;3.53;1.40;;;10.00;99.60;;;;;;5072749;28;20045;-90
2021/01/20 16:03:41;;;;;;;4.63;1.40;;;9.90;99.20;;;;;;5071804;28;20110;-86
2021/01/20 16:06:09;;;;;;;5.45;1.55;;;9.90;99.30;;;;;;5073760;28;20055;-86
2021/01/20 16:08:35;;;;;;;5.90;2.33;;;9.90;99.40;;;;;;5071465;28;20155;-89
2021/01/20 16:11:00;;;;;;;4.65;1.98;;;9.90;99.90;;;;;;5072610;28;20547;-87
2021/01/20 16:13:26;;;;;;;13.23;6.10;;;9.90;99.80;;;;;;5072839;28;20048;-88
2021/01/20 16:15:52;;;;;;;7.65;3.13;;;9.80;99.80;;;;;;5070852;28;20055;-87
2021/01/20 16:18:17;;;;;;;9.40;4.82;;;9.80;99.90;;;;;;5073696;28;20064;-86
2021/01/20 16:20:43;;;;;;;5.05;2.80;;;9.70;99.90;;;;;;5073634;28;20036;-88
2021/01/20 16:23:10;;;;;;;6.22;2.50;;;9.80;99.90;;;;;;5070773;28;20111;-90
2021/01/20 16:25:35;;;;;;;7.25;3.38;;;9.70;99.90;;;;;;5064040;28;20047;-89
2021/01/20 16:28:01;;;;;;;9.70;5.15;;;10.90;99.90;;;;;;5074921;28;20139;-87
2021/01/20 16:30:28;;;;;;;7.13;3.92;;;9.70;99.90;;;;;;5075186;28;20075;-86
2021/01/20 16:32:56;;;;;;;6.97;3.10;;;10.90;99.90;;;;;;5076639;28;20098;-88
2021/01/20 16:35:22;;;;;;;10.98;4.53;;;9.70;99.90;;;;;;5075989;28;20542;-89
2021/01/20 16:37:48;;;;;;;57.00;26.08;;;9.60;99.90;;;;;;5076534;28;20037;-89
2021/01/20 16:40:15;;;;;;;4.82;2.53;;;9.60;99.90;;;;;;5077933;28;20044;-87
2021/01/20 16:42:41;;;;;;;10.07;4.72;;;9.50;99.90;;;;;;5076889;28;20323;-89
2021/01/20 16:45:08;;;;;;;6.47;2.95;;;9.50;99.90;;;;;;5077174;28;20071;-89
2021/01/20 16:47:34;;;;;;;13.40;6.82;;;9.50;99.90;;;;;;5076271;28;20052;-88
2021/01/20 16:50:00;;;;;;;12.48;4.90;;;10.40;99.90;;;;;;5076184;28;20045;-89
2021/01/20 16:52:42;;;;;;;16.48;6.78;;;9.50;99.90;;;;;;5075673;28;20388;-87
2021/01/20 16:55:09;;;;;;;7.07;3.33;;;10.90;99.90;;;;;;5074093;28;20043;-88
2021/01/20 16:57:35;;;;;;;6.82;3.47;;;9.40;99.90;;;;;;5074509;28;20082;-88
2021/01/20 17:00:02;;;;;;;9.25;4.20;;;9.30;99.90;;;;;;5074256;28;20052;-88
2021/01/20 17:02:28;;;;;;;14.48;5.85;;;9.30;99.90;;;;;;5075272;28;20078;-89
2021/01/20 17:04:54;;;;;;;4.57;2.10;;;10.70;99.90;;;;;;5075765;28;20110;-89
2021/01/20 17:07:20;;;;;;;34.22;11.32;;;10.00;99.90;;;;;;5076695;28;20039;-90
2021/01/20 17:09:47;;;;;;;6.15;3.00;;;9.00;99.90;;;;;;5075709;28;20488;-89
2021/01/20 17:12:13;;;;;;;6.55;1.85;;;9.20;99.90;;;;;;5077152;28;20068;-90
2021/01/20 17:14:41;;;;;;;4.80;1.98;;;9.10;99.90;;;;;;5074338;28;20139;-88
2021/01/20 17:17:07;;;;;;;3.63;1.73;;;9.50;99.90;;;;;;5075250;28;20037;-91
2021/01/20 17:19:32;;;;;;;5.10;2.83;;;9.70;99.90;;;;;;5075606;28;20052;-88
2021/01/20 17:21:58;;;;;;;5.82;2.35;;;9.80;99.90;;;;;;5078026;28;20048;-89
2021/01/20 17:24:24;;;;;;;4.53;1.90;;;9.10;99.90;;;;;;5080261;28;20041;-90
2021/01/20 17:26:50;;;;;;;4.38;1.90;;;9.10;99.90;;;;;;5079441;28;20040;-90
2021/01/20 17:29:15;;;;;;;5.43;2.13;;;9.10;99.90;;;;;;5078895;28;20066;-89
2021/01/20 17:31:42;;;;;;;3.55;1.83;;;9.10;99.90;;;;;;5077237;28;20041;-89
2021/01/20 17:34:07;;;;;;;5.28;1.90;;;9.10;99.90;;;;;;5077515;28;20040;-89
2021/01/20 17:36:33;;;;;;;3.80;1.98;;;9.10;99.90;;;;;;5074487;28;20072;-89
2021/01/20 17:38:59;;;;;;;4.40;2.05;;;9.00;99.90;;;;;;5073627;28;20040;-89
2021/01/20 17:41:24;;;;;;;3.47;1.77;;;9.00;99.90;;;;;;5075663;28;20036;-90
2021/01/20 17:43:50;;;;;;;4.40;2.00;;;9.00;99.90;;;;;;5075966;28;20538;-91
2021/01/20 17:46:16;;;;;;;5.38;2.17;;;9.00;99.90;;;;;;5075280;28;20044;-89
2021/01/20 17:48:44;;;;;;;5.63;2.08;;;9.00;99.90;;;;;;5074301;28;20037;-89
2021/01/20 17:51:09;;;;;;;4.30;1.85;;;9.00;99.90;;;;;;5078057;28;20044;-90
2021/01/20 17:53:35;;;;;;;6.40;2.30;;;8.90;99.90;;;;;;5079632;28;20028;-90
2021/01/20 17:56:01;;;;;;;6.25;2.03;;;8.80;99.90;;;;;;5078579;28;20648;-89
2021/01/20 17:58:26;;;;;;;4.40;2.20;;;8.90;99.90;;;;;;5066894;28;20045;-90
2021/01/20 18:00:52;;;;;;;3.20;1.90;;;8.90;99.90;;;;;;5070090;28;20076;-87
2021/01/20 18:03:18;;;;;;;7.68;2.40;;;8.90;99.90;;;;;;5075673;28;20036;-87
2021/01/20 18:05:45;;;;;;;6.18;2.38;;;8.80;99.90;;;;;;5075377;28;20044;-88
2021/01/20 18:08:10;;;;;;;10.23;3.17;;;8.70;99.90;;;;;;5075287;28;20073;-90
2021/01/20 18:10:36;;;;;;;6.00;3.40;;;8.80;99.90;;;;;;5073603;28;20044;-88
2021/01/20 18:13:02;;;;;;;4.72;2.30;;;8.80;99.90;;;;;;5075491;28;20045;-88
2021/01/20 18:15:27;;;;;;;4.93;2.22;;;8.70;99.90;;;;;;5075340;28;20037;-89
2021/01/20 18:17:53;;;;;;;6.15;2.60;;;8.70;99.90;;;;;;5084421;28;20045;-85
2021/01/20 18:20:19;;;;;;;4.82;2.45;;;8.60;99.90;;;;;;5076972;28;20040;-88
2021/01/20 18:22:45;;;;;;;4.82;2.08;;;8.60;99.90;;;;;;5075487;28;20053;-88
2021/01/20 18:25:12;;;;;;;5.07;2.33;;;8.60;99.90;;;;;;5073765;28;20068;-87
2021/01/20 18:27:37;;;;;;;5.43;2.45;;;8.60;99.90;;;;;;5074000;28;20455;-88
2021/01/20 18:30:04;;;;;;;6.03;2.20;;;8.60;99.90;;;;;;5073495;28;20064;-86
2021/01/20 18:32:30;;;;;;;5.63;2.15;;;8.60;99.90;;;;;;5074223;28;20070;-88
2021/01/20 18:34:56;;;;;;;4.60;2.42;;;8.70;99.90;;;;;;5074250;28;20072;-90
2021/01/20 18:37:21;;;;;;;6.82;2.17;;;8.70;99.90;;;;;;5074263;28;20105;-88
2021/01/20 18:39:48;;;;;;;6.10;1.90;;;8.60;99.90;;;;;;5073498;28;20139;-88
2021/01/20 18:42:14;;;;;;;6.82;2.28;;;8.60;99.90;;;;;;5073274;28;20071;-88
2021/01/20 18:44:40;;;;;;;6.90;2.72;;;8.70;99.90;;;;;;5073266;28;20435;-87
2021/01/20 18:47:06;;;;;;;9.48;3.10;;;8.70;99.90;;;;;;5074884;28;20041;-89
2021/01/20 18:49:32;;;;;;;7.43;2.25;;;8.70;99.90;;;;;;5075195;28;20052;-88
2021/01/20 18:51:59;;;;;;;5.70;1.90;;;8.70;99.90;;;;;;5074661;28;20044;-86
2021/01/20 18:54:26;;;;;;;3.97;2.20;;;8.70;99.90;;;;;;5073371;28;20033;-88
2021/01/20 18:56:52;;;;;;;11.52;2.30;;;8.60;99.90;;;;;;5073106;28;20053;-90
2021/01/20 18:59:18;;;;;;;7.28;1.98;;;8.60;99.90;;;;;;5072293;28;20806;-88
2021/01/20 19:01:44;;;;;;;5.32;1.58;;;8.60;99.90;;;;;;5073741;28;20060;-89
2021/01/20 19:04:09;;;;;;;5.63;2.25;;;8.60;99.90;;;;;;5074157;28;20066;-89
2021/01/20 19:06:38;;;;;;;5.88;1.88;;;8.60;99.90;;;;;;5073655;28;20070;-88
2021/01/20 19:09:04;;;;;;;4.65;1.77;;;8.50;99.90;;;;;;5072683;28;20486;-88
2021/01/20 19:11:30;;;;;;;4.05;1.65;;;8.80;99.90;;;;;;5072043;28;20046;-88
2021/01/20 19:13:56;;;;;;;4.63;1.65;;;8.70;99.90;;;;;;5072914;28;20391;-89
2021/01/20 19:16:22;;;;;;;6.55;2.15;;;8.70;99.90;;;;;;5071665;28;20051;-87
2021/01/20 19:18:47;;;;;;;3.88;1.50;;;8.70;99.90;;;;;;5071924;28;20033;-87
2021/01/20 19:21:13;;;;;;;5.57;1.95;;;8.80;99.90;;;;;;5073268;28;20098;-87
2021/01/20 19:23:39;;;;;;;3.38;1.58;;;8.80;99.90;;;;;;5072431;28;20527;-89
2021/01/20 19:26:05;;;;;;;4.35;1.70;;;8.80;99.90;;;;;;5072359;28;20426;-91
2021/01/20 19:28:31;;;;;;;5.47;1.75;;;8.80;99.90;;;;;;5073240;28;20047;-87
2021/01/20 19:30:57;;;;;;;7.18;2.13;;;8.80;99.90;;;;;;5072875;28;20377;-90
2021/01/20 19:33:23;;;;;;;6.00;2.00;;;8.80;99.90;;;;;;5072850;28;20055;-88
2021/01/20 19:35:49;;;;;;;3.85;1.85;;;9.80;99.90;;;;;;5077700;28;20543;-91
2021/01/20 19:38:14;;;;;;;4.18;1.65;;;8.80;99.90;;;;;;5074539;28;20052;-88
2021/01/20 19:40:40;;;;;;;6.03;1.90;;;8.80;99.90;;;;;;5077256;28;20124;-90
2021/01/20 19:43:06;;;;;;;8.15;2.15;;;8.80;99.90;;;;;;5081423;28;20154;-87
2021/01/20 19:45:31;;;;;;;5.30;1.90;;;8.80;99.90;;;;;;5089722;28;20036;-89
2021/01/20 19:47:58;;;;;;;3.58;1.80;;;8.80;99.90;;;;;;5077692;28;20040;-88
2021/01/20 19:50:24;;;;;;;5.07;1.88;;;9.00;99.90;;;;;;5077273;28;20048;-86
2021/01/20 19:52:51;;;;;;;7.20;2.08;;;8.80;99.90;;;;;;5077820;28;20043;-86
2021/01/20 19:55:17;;;;;;;7.10;2.10;;;8.80;99.90;;;;;;5066410;28;20041;-87
2021/01/20 19:57:42;;;;;;;4.75;2.20;;;8.80;99.90;;;;;;5052112;28;20056;-87
2021/01/20 20:00:12;;;;;;;6.78;2.00;;;8.80;99.90;;;;;;5058586;28;20080;-89
2021/01/20 20:02:38;;;;;;;4.35;1.90;;;8.70;99.90;;;;;;5077160;28;20033;-89
2021/01/20 20:05:05;;;;;;;5.68;1.55;;;8.60;99.90;;;;;;5073076;28;20071;-89
2021/01/20 20:07:33;;;;;;;4.35;1.75;;;8.60;99.90;;;;;;5072935;28;20052;-89
2021/01/20 20:09:59;;;;;;;5.78;1.90;;;8.60;99.90;;;;;;5072452;28;20068;-88
2021/01/20 20:12:25;;;;;;;3.47;1.58;;;9.70;99.90;;;;;;5072448;28;20451;-89
2021/01/20 20:14:51;;;;;;;4.82;1.60;;;8.60;99.90;;;;;;5074287;28;20054;-89
2021/01/20 20:17:16;;;;;;;4.15;1.77;;;10.10;99.90;;;;;;5075391;28;20397;-88
2021/01/20 20:19:42;;;;;;;4.97;2.00;;;8.50;99.90;;;;;;5078805;28;20072;-89
2021/01/20 20:22:10;;;;;;;4.47;1.80;;;8.50;99.90;;;;;;5076834;28;20489;-87
2021/01/20 20:24:37;;;;;;;5.40;1.70;;;8.10;99.90;;;;;;5078766;28;20037;-90
2021/01/20 20:27:03;;;;;;;6.28;1.50;;;8.50;99.90;;;;;;5075728;28;20196;-90
2021/01/20 20:29:29;;;;;;;5.75;2.15;;;8.50;99.90;;;;;;5075305;28;20097;-90
2021/01/20 20:31:55;;;;;;;6.03;1.85;;;8.50;99.90;;;;;;5077405;28;20446;-89
2021/01/20 20:34:21;;;;;;;4.85;1.75;;;8.50;99.90;;;;;;5073089;28;20032;-88
2021/01/20 20:36:46;;;;;;;6.18;1.88;;;8.50;99.90;;;;;;5071414;28;20492;-91
2021/01/20 20:39:13;;;;;;;4.32;1.70;;;8.50;99.90;;;;;;5070764;28;20453;-90
2021/01/20 20:41:39;;;;;;;3.97;1.50;;;8.50;99.90;;;;;;5070558;28;20109;-88
2021/01/20 20:44:05;;;;;;;3.97;1.80;;;8.50;99.90;;;;;;5071141;28;20044;-88
2021/01/20 20:46:31;;;;;;;5.43;2.20;;;8.50;99.90;;;;;;5071182;28;20071;-88
2021/01/20 20:48:57;;;;;;;5.57;1.98;;;8.40;99.90;;;;;;5070032;28;20082;-85
2021/01/20 20:51:22;;;;;;;4.75;1.77;;;10.20;99.90;;;;;;5070751;28;20042;-90
2021/01/20 20:53:48;;;;;;;5.20;1.60;;;8.50;99.90;;;;;;5071059;28;20032;-90
2021/01/20 20:56:15;;;;;;;5.32;1.80;;;8.50;99.90;;;;;;5071161;28;20070;-89
2021/01/20 20:58:40;;;;;;;5.35;1.50;;;8.50;99.90;;;;;;5069769;28;20113;-90
2021/01/20 21:01:07;;;;;;;3.78;1.50;;;8.50;99.90;;;;;;5070081;28;20055;-90
2021/01/20 21:03:33;;;;;;;5.60;1.83;;;8.50;99.90;;;;;;5070476;28;20045;-89
2021/01/20 21:05:59;;;;;;;4.28;1.80;;;8.40;99.90;;;;;;5070510;28;20047;-90
2021/01/20 21:08:24;;;;;;;5.53;1.75;;;8.60;99.90;;;;;;5069884;28;20044;-89
2021/01/20 21:10:50;;;;;;;3.97;1.88;;;8.50;99.90;;;;;;5070686;28;20068;-89
2021/01/20 21:13:16;;;;;;;5.28;2.00;;;8.40;99.90;;;;;;5071300;28;20063;-90
2021/01/20 21:15:42;;;;;;;7.25;1.88;;;8.40;99.90;;;;;;5071389;28;20484;-88
2021/01/20 21:18:08;;;;;;;5.35;1.73;;;10.00;99.90;;;;;;5069865;28;20064;-88
2021/01/20 21:20:33;;;;;;;4.40;1.75;;;8.40;99.90;;;;;;5069603;28;20557;-88
2021/01/20 21:22:59;;;;;;;3.67;1.60;;;8.50;99.90;;;;;;5071523;28;20044;-92
2021/01/20 21:25:25;;;;;;;3.95;1.63;;;8.40;99.90;;;;;;5072375;28;20143;-90
2021/01/20 21:27:50;;;;;;;6.55;1.83;;;8.50;99.90;;;;;;5074233;28;20402;-89
2021/01/20 21:30:17;;;;;;;4.00;1.67;;;8.50;99.90;;;;;;5073981;28;20557;-88
2021/01/20 21:32:43;;;;;;;9.23;1.80;;;8.50;99.90;;;;;;5074465;28;20048;-88
2021/01/20 21:35:09;;;;;;;4.25;1.40;;;8.50;99.90;;;;;;5073795;28;20134;-89
2021/01/20 21:37:36;;;;;;;3.55;1.48;;;8.50;99.90;;;;;;5075415;28;20102;-91
2021/01/20 21:40:02;;;;;;;4.60;1.30;;;8.50;99.90;;;;;;5074486;28;20356;-89
2021/01/20 21:42:30;;;;;;;5.15;1.90;;;8.50;99.90;;;;;;5073699;28;20044;-88
2021/01/20 21:44:55;;;;;;;3.95;1.55;;;8.50;99.90;;;;;;5072604;28;20684;-87
2021/01/20 21:47:22;;;;;;;6.25;1.70;;;8.40;99.90;;;;;;5073877;28;20127;-88
2021/01/20 21:49:48;;;;;;;4.63;1.90;;;8.40;99.90;;;;;;5074794;28;20649;-91
2021/01/20 21:52:13;;;;;;;5.82;2.03;;;8.50;99.90;;;;;;5074429;28;20040;-91
2021/01/20 21:54:39;;;;;;;4.75;1.77;;;9.70;99.90;;;;;;5073875;28;20076;-88
2021/01/20 21:57:05;;;;;;;5.70;1.55;;;8.50;99.90;;;;;;5073713;28;20173;-88
2021/01/20 21:59:31;;;;;;;3.47;1.42;;;8.50;99.90;;;;;;5072790;28;20062;-89
2021/01/20 22:01:56;;;;;;;5.05;1.67;;;8.40;99.90;;;;;;5073772;28;20040;-88
2021/01/20 22:04:23;;;;;;;6.03;1.95;;;8.50;99.90;;;;;;5073399;28;20404;-90
2021/01/20 22:06:49;;;;;;;5.88;1.73;;;8.50;99.90;;;;;;5075473;28;20048;-89
2021/01/20 22:09:14;;;;;;;4.50;1.48;;;8.50;99.90;;;;;;5073649;28;20442;-89
2021/01/20 22:11:40;;;;;;;4.05;1.50;;;8.40;99.90;;;;;;5074156;28;20040;-89
2021/01/20 22:14:06;;;;;;;5.57;1.85;;;8.40;99.90;;;;;;5073568;28;20048;-88
2021/01/20 22:16:33;;;;;;;4.90;1.55;;;8.40;99.90;;;;;;5062278;28;20570;-89
2021/01/20 22:18:59;;;;;;;3.25;1.27;;;8.20;99.90;;;;;;5074416;28;20048;-89
2021/01/20 22:21:25;;;;;;;3.00;1.50;;;8.40;99.90;;;;;;5068095;28;20032;-90
2021/01/20 22:23:51;;;;;;;4.43;1.67;;;8.30;99.90;;;;;;5056852;28;20049;-89
2021/01/20 22:26:17;;;;;;;5.45;1.90;;;8.30;99.90;;;;;;5056668;28;20104;-87
2021/01/20 22:28:42;;;;;;;5.05;1.70;;;8.30;99.90;;;;;;5060007;28;20048;-89
2021/01/20 22:31:08;;;;;;;4.45;1.70;;;8.30;99.90;;;;;;5075866;28;20044;-89
2021/01/20 22:33:34;;;;;;;5.50;1.50;;;8.20;99.90;;;;;;5072562;28;20040;-88
2021/01/20 22:35:59;;;;;;;4.05;1.67;;;8.20;99.90;;;;;;5055059;28;20098;-87
2021/01/20 22:38:26;;;;;;;6.15;1.65;;;8.20;99.90;;;;;;5054961;28;20496;-89
2021/01/20 22:40:52;;;;;;;5.45;1.60;;;8.20;99.90;;;;;;5055067;28;20053;-88
2021/01/20 22:43:17;;;;;;;3.97;1.35;;;8.30;99.90;;;;;;5054870;28;20102;-89
2021/01/20 22:45:43;;;;;;;3.90;1.42;;;8.30;99.90;;;;;;5064837;28;20045;-89
2021/01/20 22:48:09;;;;;;;4.63;1.67;;;8.40;99.90;;;;;;5074543;28;20094;-88
2021/01/20 22:50:35;;;;;;;4.47;1.70;;;8.40;99.90;;;;;;5074777;28;20122;-89
2021/01/20 22:53:01;;;;;;;4.18;1.50;;;8.30;99.90;;;;;;5074690;28;20040;-89
2021/01/20 22:55:27;;;;;;;4.18;1.48;;;8.30;99.90;;;;;;5073712;28;20087;-90
2021/01/20 22:57:53;;;;;;;4.55;1.52;;;8.30;99.90;;;;;;5074423;28;20450;-89
2021/01/20 23:00:24;;;;;;;3.92;1.30;;;8.30;99.90;;;;;;5073649;28;20040;-89
2021/01/20 23:02:50;;;;;;;5.22;1.70;;;8.30;99.90;;;;;;5074776;28;20040;-88
2021/01/20 23:05:16;;;;;;;6.03;1.60;;;8.30;99.90;;;;;;5074225;28;20044;-89
2021/01/20 23:07:42;;;;;;;8.32;2.03;;;8.30;99.90;;;;;;5072882;28;20139;-87
2021/01/20 23:10:10;;;;;;;5.88;1.60;;;8.30;99.90;;;;;;5070052;28;20040;-86
2021/01/20 23:12:37;;;;;;;6.28;1.70;;;8.30;99.90;;;;;;5070801;28;20500;-86
2021/01/20 23:15:04;;;;;;;4.38;1.52;;;8.30;99.90;;;;;;5070423;28;20090;-87
2021/01/20 23:17:29;;;;;;;4.60;1.63;;;8.30;99.90;;;;;;5070907;28;20048;-88
2021/01/20 23:19:55;;;;;;;3.83;1.60;;;8.30;99.90;;;;;;5070100;28;20044;-88
2021/01/20 23:22:21;;;;;;;4.60;1.50;;;8.30;99.90;;;;;;5070685;28;20059;-87
2021/01/20 23:24:47;;;;;;;6.95;2.15;;;8.30;99.90;;;;;;5070733;28;20037;-87
2021/01/20 23:27:12;;;;;;;5.00;1.55;;;8.30;99.90;;;;;;5071138;28;20048;-87
2021/01/20 23:29:39;;;;;;;4.10;1.55;;;8.40;99.90;;;;;;5069984;28;20051;-87
2021/01/20 23:32:06;;;;;;;5.22;1.75;;;8.40;99.90;;;;;;5070748;28;20076;-87
2021/01/20 23:34:31;;;;;;;4.25;1.50;;;8.40;99.90;;;;;;5070791;28;20048;-88
2021/01/20 23:36:57;;;;;;;4.72;1.50;;;9.50;99.90;;;;;;5070745;28;20040;-86
2021/01/20 23:39:23;;;;;;;4.80;1.60;;;8.40;99.90;;;;;;5070170;28;20072;-87
2021/01/20 23:41:49;;;;;;;5.05;1.65;;;8.40;99.90;;;;;;5070428;28;20044;-88
2021/01/20 23:44:14;;;;;;;5.05;1.80;;;8.40;99.90;;;;;;5072470;28;20499;-87
2021/01/20 23:46:41;;;;;;;5.40;1.70;;;8.30;99.90;;;;;;5074074;28;20418;-89
2021/01/20 23:49:06;;;;;;;5.13;1.90;;;8.40;99.90;;;;;;5078747;28;20043;-88
2021/01/20 23:51:33;;;;;;;4.97;1.60;;;8.30;99.90;;;;;;5065041;28;20044;-89
2021/01/20 23:53:59;;;;;;;4.68;1.77;;;10.00;99.90;;;;;;5063780;28;20049;-87
2021/01/20 23:56:24;;;;;;;4.80;1.40;;;8.20;99.90;;;;;;5060400;28;20122;-88
2021/01/20 23:58:52;;;;;;;4.60;1.88;;;8.30;99.90;;;;;;5064249;28;20484;-88
